Time;durP1;ratioP1;P1;durP2;ratioP2;P2;SDS_P1;SDS_P2;PMS_P1;PMS_P2;Temp;Humidity;BMP_temperature;BMP_pressure;BME280_temperature;BME280_humidity;BME280_pressure;Samples;Min_cycle;Max_cycle;Signal;HPM_P1;HPM_P2
2023/08/20 00:01:31;;;;;;;9.55;8.63;;;;;24.70;98997.00;;;;5081916;28;20050;-61
2023/08/20 00:03:58;;;;;;;13.35;10.10;;;;;24.80;99003.00;;;;5098890;28;20047;-61
2023/08/20 00:06:25;;;;;;;13.57;8.93;;;;;24.90;98994.00;;;;5098757;28;20112;-61
2023/08/20 00:08:52;;;;;;;11.77;8.50;;;;;24.90;99000.00;;;;5097977;28;20058;-61
2023/08/20 00:11:18;;;;;;;12.55;8.82;;;;;24.90;99001.00;;;;5078927;28;20048;-61
2023/08/20 00:13:45;;;;;;;10.65;8.90;;;;;24.90;99003.00;;;;5061697;28;20127;-61
2023/08/20 00:16:12;;;;;;;12.48;8.90;;;;;24.90;99000.00;;;;5094507;28;20119;-61
2023/08/20 00:18:39;;;;;;;9.10;8.20;;;;;24.90;99001.00;;;;5095452;28;20133;-61
2023/08/20 00:21:08;;;;;;;9.82;8.80;;;;;24.90;99004.00;;;;5094985;28;20093;-61
2023/08/20 00:23:36;;;;;;;12.18;9.00;;;;;24.90;99007.00;;;;5078263;28;20043;-62
2023/08/20 00:26:03;;;;;;;9.77;8.77;;;;;24.80;99013.00;;;;5078663;28;20048;-62
2023/08/20 00:28:29;;;;;;;12.57;8.88;;;;;24.80;99012.00;;;;5096734;28;20117;-62
2023/08/20 00:30:56;;;;;;;10.15;8.25;;;;;24.80;99026.00;;;;5078923;28;20131;-62
2023/08/20 00:33:23;;;;;;;10.43;8.45;;;;;24.80;99023.00;;;;5095232;28;20044;-62
2023/08/20 00:35:49;;;;;;;11.60;9.23;;;;;24.80;99018.00;;;;5075234;28;20582;-62
2023/08/20 00:38:16;;;;;;;12.02;8.85;;;;;24.70;99018.00;;;;5075254;28;20050;-61
2023/08/20 00:40:43;;;;;;;11.90;8.68;;;;;24.50;99016.00;;;;5075147;28;20516;-61
2023/08/20 00:43:10;;;;;;;10.40;8.60;;;;;24.50;99016.00;;;;5075418;28;20046;-60
2023/08/20 00:45:36;;;;;;;10.85;8.35;;;;;24.50;99014.00;;;;5075368;28;20048;-61
2023/08/20 00:48:05;;;;;;;8.93;8.00;;;;;24.60;99015.00;;;;5058643;28;20105;-61
2023/08/20 00:50:32;;;;;;;9.75;8.65;;;;;24.60;99016.00;;;;5092979;28;20496;-61
2023/08/20 00:52:59;;;;;;;9.93;8.27;;;;;24.50;99010.00;;;;5093103;28;20042;-61
2023/08/20 00:55:26;;;;;;;11.98;8.98;;;;;24.50;99012.00;;;;5075616;28;20432;-61
2023/08/20 00:57:53;;;;;;;10.88;9.40;;;;;24.50;99018.00;;;;5075371;28;20047;-61
2023/08/20 01:00:23;;;;;;;11.38;8.77;;;;;24.50;99018.00;;;;5092694;28;20046;-61
2023/08/20 01:02:49;;;;;;;10.70;8.73;;;;;24.40;99013.00;;;;5092643;28;20040;-60
2023/08/20 01:05:16;;;;;;;10.45;8.90;;;;;24.40;99011.00;;;;5074845;28;20048;-61
2023/08/20 01:08:21;;;;;;;15.45;10.13;;;;;24.40;99000.00;;;;5074738;28;20051;-62
2023/08/20 01:10:56;;;;;;;10.25;9.25;;;;;24.40;98999.00;;;;5089831;28;20503;-61
2023/08/20 01:13:23;;;;;;;12.48;8.77;;;;;24.40;99000.00;;;;5092266;28;20061;-61
2023/08/20 01:15:49;;;;;;;9.65;8.65;;;;;24.40;98987.00;;;;5074442;28;20089;-62
2023/08/20 01:18:16;;;;;;;13.05;9.50;;;;;24.30;98983.00;;;;5092572;28;20044;-61
2023/08/20 01:20:57;;;;;;;10.68;9.10;;;;;24.20;98986.00;;;;5074236;28;20050;-61
2023/08/20 01:23:41;;;;;;;13.80;9.57;;;;;24.10;98981.00;;;;5074360;28;20050;-61
2023/08/20 01:26:48;;;;;;;13.52;9.27;;;;;24.10;98973.00;;;;5074301;28;20537;-61
2023/08/20 01:29:15;;;;;;;14.48;9.07;;;;;24.00;98974.00;;;;5073782;28;20471;-61
2023/08/20 01:31:44;;;;;;;12.18;8.57;;;;;24.00;98970.00;;;;5092302;28;20412;-62
2023/08/20 01:34:11;;;;;;;12.18;8.63;;;;;24.10;98982.00;;;;5074134;28;20072;-61
2023/08/20 01:36:38;;;;;;;10.55;8.45;;;;;24.10;98995.00;;;;5074293;28;20058;-61
2023/08/20 01:39:04;;;;;;;11.10;9.65;;;;;24.10;98988.00;;;;5074439;28;20056;-61
2023/08/20 01:41:31;;;;;;;10.48;8.25;;;;;24.00;98992.00;;;;5092114;28;20108;-61
2023/08/20 01:43:59;;;;;;;12.85;8.88;;;;;24.00;98996.00;;;;5074470;28;20439;-62
2023/08/20 01:46:26;;;;;;;12.18;9.15;;;;;23.90;98996.00;;;;5074318;28;20097;-61
2023/08/20 01:48:53;;;;;;;12.52;8.93;;;;;23.80;98999.00;;;;5074059;28;20511;-62
2023/08/20 01:51:19;;;;;;;10.27;9.20;;;;;23.70;99005.00;;;;5074006;28;20086;-61
2023/08/20 01:53:46;;;;;;;14.50;8.60;;;;;23.80;99001.00;;;;5091982;28;20040;-61
2023/08/20 01:56:13;;;;;;;9.98;8.80;;;;;23.90;99004.00;;;;5092240;28;20514;-62
2023/08/20 01:58:40;;;;;;;13.15;9.25;;;;;23.90;99005.00;;;;5073688;28;20040;-62
2023/08/20 02:01:07;;;;;;;9.70;8.70;;;;;23.90;99004.00;;;;5073690;28;20043;-62
2023/08/20 02:03:35;;;;;;;9.30;8.48;;;;;23.90;99007.00;;;;5057235;28;20090;-61
2023/08/20 02:06:02;;;;;;;10.65;8.90;;;;;23.90;99002.00;;;;5092192;28;20071;-61
2023/08/20 02:08:28;;;;;;;11.68;8.75;;;;;23.90;99004.00;;;;5091921;28;20059;-61
2023/08/20 02:11:02;;;;;;;12.40;8.68;;;;;23.90;98995.00;;;;5091788;28;20126;-61
2023/08/20 02:13:30;;;;;;;12.27;9.65;;;;;23.70;99005.00;;;;5073501;28;20226;-61
2023/08/20 02:15:59;;;;;;;11.07;9.20;;;;;23.60;99010.00;;;;5073869;28;20044;-61
2023/08/20 02:18:27;;;;;;;10.27;9.13;;;;;23.60;99004.00;;;;5092031;28;20036;-61
2023/08/20 02:20:54;;;;;;;11.23;9.05;;;;;23.50;99005.00;;;;5074858;28;20047;-61
2023/08/20 02:23:20;;;;;;;12.95;9.35;;;;;23.50;99003.00;;;;5076950;28;20051;-62
2023/08/20 02:25:47;;;;;;;9.75;8.75;;;;;23.60;99008.00;;;;5094741;28;20050;-62
2023/08/20 02:28:14;;;;;;;9.10;8.18;;;;;23.60;98998.00;;;;5095319;28;20574;-62
2023/08/20 02:30:42;;;;;;;9.50;8.30;;;;;23.70;99003.00;;;;5095112;28;20063;-61
2023/08/20 02:33:09;;;;;;;9.43;7.85;;;;;23.70;98998.00;;;;5091694;28;20393;-61
2023/08/20 02:35:37;;;;;;;11.80;8.65;;;;;23.60;99002.00;;;;5056996;28;20047;-62
2023/08/20 02:38:04;;;;;;;9.65;8.30;;;;;23.60;99009.00;;;;5073613;28;20513;-61
2023/08/20 02:40:32;;;;;;;9.90;8.70;;;;;23.60;99005.00;;;;5075649;28;20408;-61
2023/08/20 02:42:59;;;;;;;9.48;8.18;;;;;23.50;98998.00;;;;5095734;28;20039;-61
2023/08/20 02:45:25;;;;;;;10.15;9.05;;;;;23.40;99004.00;;;;5095462;28;20048;-61
2023/08/20 02:47:52;;;;;;;13.35;8.55;;;;;23.40;98995.00;;;;5095529;28;20090;-61
2023/08/20 02:50:18;;;;;;;13.27;8.75;;;;;23.30;98997.00;;;;5095204;28;20040;-61
2023/08/20 02:52:45;;;;;;;12.73;8.20;;;;;23.40;98995.00;;;;5095323;28;20043;-61
2023/08/20 02:55:11;;;;;;;9.70;8.18;;;;;23.40;98998.00;;;;5077236;28;20051;-62
2023/08/20 02:57:38;;;;;;;10.10;9.10;;;;;23.40;99000.00;;;;5077137;28;20051;-62
2023/08/20 03:00:09;;;;;;;11.00;8.48;;;;;23.30;98997.00;;;;5094943;28;20064;-61
2023/08/20 03:02:36;;;;;;;11.77;9.70;;;;;23.30;98989.00;;;;5077060;28;20094;-61
2023/08/20 03:05:05;;;;;;;13.52;9.90;;;;;23.30;98999.00;;;;5076612;28;20052;-61
2023/08/20 03:07:32;;;;;;;18.67;10.73;;;;;23.30;98996.00;;;;5076972;28;20078;-61
2023/08/20 03:09:59;;;;;;;14.98;10.40;;;;;23.30;99005.00;;;;5094907;28;20599;-62
2023/08/20 03:12:25;;;;;;;19.75;10.75;;;;;23.30;98995.00;;;;5094978;28;20072;-61
2023/08/20 03:14:52;;;;;;;14.02;10.32;;;;;23.30;99001.00;;;;5094722;28;20054;-61
2023/08/20 03:17:19;;;;;;;13.70;10.13;;;;;23.30;98990.00;;;;5094916;28;20522;-61
2023/08/20 03:19:56;;;;;;;12.23;10.15;;;;;23.40;98993.00;;;;5094744;28;20059;-61
2023/08/20 03:22:24;;;;;;;12.32;10.75;;;;;23.30;98990.00;;;;5094986;28;20048;-61
2023/08/20 03:24:56;;;;;;;19.67;10.93;;;;;23.30;98994.00;;;;5096329;28;20071;-61
2023/08/20 03:27:23;;;;;;;15.95;10.60;;;;;23.20;98991.00;;;;5094682;28;20043;-61
2023/08/20 03:29:52;;;;;;;18.30;11.70;;;;;23.20;98992.00;;;;5094445;28;20040;-61
2023/08/20 03:32:19;;;;;;;15.65;11.02;;;;;23.20;98992.00;;;;5076277;28;20425;-61
2023/08/20 03:34:46;;;;;;;14.52;10.98;;;;;23.30;98992.00;;;;5059857;28;20052;-61
2023/08/20 03:37:16;;;;;;;17.95;11.25;;;;;23.30;98992.00;;;;5076343;28;20051;-61
2023/08/20 03:39:43;;;;;;;19.13;12.30;;;;;23.20;98992.00;;;;5076605;28;20127;-61
2023/08/20 03:42:10;;;;;;;13.32;11.93;;;;;23.10;98998.00;;;;5094394;28;20048;-61
2023/08/20 03:44:36;;;;;;;12.00;10.80;;;;;23.10;98997.00;;;;5094287;28;20036;-61
2023/08/20 03:47:03;;;;;;;12.50;10.48;;;;;23.00;98992.00;;;;5094346;28;20043;-61
2023/08/20 03:49:33;;;;;;;13.63;10.50;;;;;23.00;98992.00;;;;5093970;28;20064;-62
2023/08/20 03:52:01;;;;;;;12.77;11.02;;;;;23.10;98994.00;;;;5093940;28;20048;-61
2023/08/20 03:54:29;;;;;;;10.93;9.82;;;;;23.20;99001.00;;;;5093840;28;20504;-61
2023/08/20 03:56:56;;;;;;;14.38;10.25;;;;;23.20;98999.00;;;;5094274;28;20044;-62
2023/08/20 03:59:22;;;;;;;14.23;10.18;;;;;23.20;98999.00;;;;5093816;28;20036;-61
2023/08/20 04:01:49;;;;;;;12.85;10.30;;;;;23.20;99001.00;;;;5076213;28;20051;-61
2023/08/20 04:04:15;;;;;;;13.60;10.27;;;;;23.20;99000.00;;;;5075980;28;20043;-61
2023/08/20 04:06:42;;;;;;;12.38;10.73;;;;;23.20;98997.00;;;;5094117;28;20134;-61
2023/08/20 04:09:09;;;;;;;15.68;11.10;;;;;23.30;99004.00;;;;5076153;28;20048;-61
2023/08/20 04:11:35;;;;;;;12.30;10.15;;;;;23.30;99008.00;;;;5075924;28;20074;-62
2023/08/20 04:14:02;;;;;;;13.82;11.65;;;;;23.30;99007.00;;;;5075627;28;20792;-62
2023/08/20 04:16:29;;;;;;;14.88;13.15;;;;;23.20;99005.00;;;;5076888;28;20074;-61
2023/08/20 04:18:56;;;;;;;13.05;10.02;;;;;23.00;99008.00;;;;5077519;28;20059;-61
2023/08/20 04:21:23;;;;;;;10.52;9.52;;;;;22.90;99012.00;;;;5095541;28;20044;-62
2023/08/20 04:23:49;;;;;;;10.63;9.60;;;;;23.00;99016.00;;;;5077422;28;20550;-62
2023/08/20 04:26:16;;;;;;;9.93;8.93;;;;;23.10;99020.00;;;;5078163;28;20044;-62
2023/08/20 04:28:42;;;;;;;17.52;10.10;;;;;23.10;99015.00;;;;5059871;28;20139;-61
2023/08/20 04:31:09;;;;;;;9.63;8.73;;;;;23.10;99018.00;;;;5093181;28;20055;-61
2023/08/20 04:33:49;;;;;;;9.15;8.25;;;;;23.10;99023.00;;;;5060701;28;20052;-62
2023/08/20 04:36:19;;;;;;;8.52;7.72;;;;;23.10;99016.00;;;;5093463;28;20032;-62
2023/08/20 04:38:46;;;;;;;10.35;9.32;;;;;23.10;99017.00;;;;5075539;28;20077;-61
2023/08/20 04:41:12;;;;;;;9.18;8.38;;;;;23.20;99022.00;;;;5093025;28;20378;-61
2023/08/20 04:43:39;;;;;;;9.45;8.48;;;;;23.20;99028.00;;;;5093164;28;20036;-62
2023/08/20 04:46:05;;;;;;;10.05;9.05;;;;;23.30;99024.00;;;;5058577;28;20083;-61
2023/08/20 04:48:32;;;;;;;10.73;8.90;;;;;23.30;99028.00;;;;5075097;28;20139;-61
2023/08/20 04:51:00;;;;;;;11.02;8.85;;;;;23.30;99029.00;;;;5074775;28;20105;-61
2023/08/20 04:53:27;;;;;;;13.65;9.40;;;;;23.20;99041.00;;;;5075072;28;20046;-62
2023/08/20 04:55:53;;;;;;;14.25;8.77;;;;;23.20;99035.00;;;;5058302;28;20534;-61
2023/08/20 04:58:21;;;;;;;10.90;9.63;;;;;23.20;99036.00;;;;5074771;28;20071;-61
2023/08/20 05:00:49;;;;;;;11.65;9.90;;;;;23.20;99043.00;;;;5074566;28;20048;-61
2023/08/20 05:03:15;;;;;;;10.38;9.38;;;;;23.20;99039.00;;;;5074220;28;20052;-61
2023/08/20 05:05:48;;;;;;;11.25;9.05;;;;;23.20;99042.00;;;;5058297;28;20067;-61
2023/08/20 05:08:15;;;;;;;11.85;8.65;;;;;23.30;99050.00;;;;5074634;28;20147;-61
2023/08/20 05:10:42;;;;;;;9.05;8.15;;;;;23.40;99052.00;;;;5057876;28;20378;-62
2023/08/20 05:13:09;;;;;;;9.00;8.10;;;;;23.40;99056.00;;;;5092738;28;20040;-61
2023/08/20 05:15:35;;;;;;;9.73;8.82;;;;;23.40;99059.00;;;;5092105;28;20056;-61
2023/08/20 05:18:02;;;;;;;9.38;8.38;;;;;23.40;99053.00;;;;5073994;28;20083;-61
2023/08/20 05:20:28;;;;;;;8.52;7.70;;;;;23.50;99057.00;;;;5074025;28;20086;-61
2023/08/20 05:22:55;;;;;;;9.60;7.72;;;;;23.50;99052.00;;;;5074394;28;20596;-61
2023/08/20 05:25:21;;;;;;;7.90;7.20;;;;;23.50;99047.00;;;;5092366;28;20036;-61
2023/08/20 05:27:49;;;;;;;8.32;7.53;;;;;23.60;99044.00;;;;5074233;28;20048;-61
2023/08/20 05:30:16;;;;;;;8.30;7.50;;;;;23.60;99042.00;;;;5057535;28;20048;-61
2023/08/20 05:32:42;;;;;;;7.57;6.88;;;;;23.70;99058.00;;;;5092371;28;20040;-61
2023/08/20 05:35:10;;;;;;;8.85;8.05;;;;;23.70;99056.00;;;;5091924;28;20543;-61
2023/08/20 05:37:38;;;;;;;8.45;7.75;;;;;23.60;99060.00;;;;5074084;28;20139;-61
2023/08/20 05:40:08;;;;;;;9.20;8.35;;;;;23.70;99059.00;;;;5073923;28;20070;-61
2023/08/20 05:42:35;;;;;;;8.88;8.05;;;;;23.70;99069.00;;;;5092322;28;20043;-61
2023/08/20 05:45:05;;;;;;;8.70;7.97;;;;;23.70;99072.00;;;;5057940;28;20036;-61
2023/08/20 05:47:32;;;;;;;9.45;8.40;;;;;23.60;99073.00;;;;5074138;28;20055;-61
2023/08/20 05:50:00;;;;;;;9.57;8.52;;;;;23.70;99072.00;;;;5073689;28;20089;-62
2023/08/20 05:52:26;;;;;;;9.82;8.13;;;;;23.70;99077.00;;;;5074250;28;20138;-61
2023/08/20 05:54:53;;;;;;;10.77;8.82;;;;;23.80;99082.00;;;;5091985;28;20136;-61
2023/08/20 05:57:20;;;;;;;9.38;8.35;;;;;23.80;99078.00;;;;5074034;28;20047;-61
2023/08/20 05:59:47;;;;;;;9.25;8.25;;;;;23.70;99082.00;;;;5073708;28;20051;-61
2023/08/20 06:02:20;;;;;;;9.75;8.85;;;;;23.80;99079.00;;;;5074006;28;20059;-60
2023/08/20 06:04:46;;;;;;;9.50;8.67;;;;;23.80;99085.00;;;;5073885;28;20407;-61
2023/08/20 06:07:13;;;;;;;9.75;8.82;;;;;23.90;99088.00;;;;5057621;28;20309;-61
2023/08/20 06:09:39;;;;;;;9.57;8.60;;;;;24.00;99082.00;;;;5073830;28;20044;-61
2023/08/20 06:12:06;;;;;;;9.40;8.50;;;;;24.00;99088.00;;;;5092015;28;20055;-61
2023/08/20 06:14:33;;;;;;;10.25;8.35;;;;;24.10;99090.00;;;;5094294;28;20046;-60
2023/08/20 06:16:59;;;;;;;13.27;8.70;;;;;24.10;99084.00;;;;5095735;28;20044;-61
2023/08/20 06:19:26;;;;;;;9.80;8.30;;;;;24.20;99087.00;;;;5077892;28;20489;-61
2023/08/20 06:21:52;;;;;;;9.70;7.75;;;;;24.20;99093.00;;;;5096115;28;20062;-61
2023/08/20 06:24:19;;;;;;;9.00;8.15;;;;;24.20;99092.00;;;;5095672;28;20043;-61
2023/08/20 06:26:45;;;;;;;8.38;7.53;;;;;24.30;99083.00;;;;5095932;28;20539;-61
2023/08/20 06:29:12;;;;;;;9.25;8.35;;;;;24.30;99093.00;;;;5095756;28;20504;-61
2023/08/20 06:31:39;;;;;;;11.70;10.55;;;;;24.40;99094.00;;;;5095872;28;20078;-61
2023/08/20 06:34:05;;;;;;;9.75;8.75;;;;;24.50;99095.00;;;;5095721;28;20048;-61
2023/08/20 06:36:32;;;;;;;59.45;53.10;;;;;24.50;99092.00;;;;5077724;28;20040;-61
2023/08/20 06:38:58;;;;;;;12.77;11.32;;;;;24.30;99088.00;;;;5095596;28;20123;-61
2023/08/20 06:41:25;;;;;;;10.80;9.75;;;;;24.10;99085.00;;;;5095433;28;20044;-62
2023/08/20 06:43:52;;;;;;;9.75;8.60;;;;;24.20;99081.00;;;;5095408;28;20040;-62
2023/08/20 06:46:18;;;;;;;9.38;8.48;;;;;24.40;99078.00;;;;5095502;28;20048;-61
2023/08/20 06:48:45;;;;;;;9.88;7.97;;;;;24.60;99089.00;;;;5077225;28;20055;-61
2023/08/20 06:51:12;;;;;;;9.68;8.10;;;;;24.70;99086.00;;;;5095360;28;20052;-60
2023/08/20 06:53:40;;;;;;;18.50;10.93;;;;;24.80;99095.00;;;;5095310;28;20119;-61
2023/08/20 06:56:08;;;;;;;9.05;8.15;;;;;24.80;99103.00;;;;5095651;28;20103;-61
2023/08/20 06:58:35;;;;;;;9.85;8.40;;;;;25.00;99099.00;;;;5077135;28;20164;-61
2023/08/20 07:01:08;;;;;;;11.77;8.40;;;;;25.10;99098.00;;;;5094989;28;20115;-61
2023/08/20 07:03:37;;;;;;;10.43;8.65;;;;;25.20;99095.00;;;;5095241;28;20047;-61
2023/08/20 07:06:04;;;;;;;9.70;8.70;;;;;25.30;99099.00;;;;5095129;28;20051;-61
2023/08/20 07:08:30;;;;;;;25.42;23.13;;;;;25.30;99095.00;;;;5094949;28;20115;-61
2023/08/20 07:10:58;;;;;;;9.70;8.70;;;;;25.20;99105.00;;;;5094952;28;20037;-61
2023/08/20 07:13:24;;;;;;;10.93;8.25;;;;;25.20;99111.00;;;;5095050;28;20048;-61
2023/08/20 07:15:51;;;;;;;26.73;24.30;;;;;25.30;99117.00;;;;5076892;28;20138;-61
2023/08/20 07:18:18;;;;;;;9.88;8.90;;;;;25.40;99118.00;;;;5060050;28;20071;-61
2023/08/20 07:20:45;;;;;;;8.98;8.10;;;;;25.60;99116.00;;;;5094528;28;20044;-61
2023/08/20 07:23:12;;;;;;;25.35;22.98;;;;;25.70;99121.00;;;;5094780;28;20119;-61
2023/08/20 07:25:40;;;;;;;8.90;8.00;;;;;25.80;99120.00;;;;5075856;28;20059;-61
2023/08/20 07:28:08;;;;;;;9.95;9.05;;;;;26.00;99119.00;;;;5094606;28;20484;-61
2023/08/20 07:30:35;;;;;;;7.68;6.85;;;;;26.10;99112.00;;;;5094533;28;20115;-64
2023/08/20 07:33:03;;;;;;;10.70;9.70;;;;;26.20;99114.00;;;;5094715;28;20044;-65
2023/08/20 07:35:32;;;;;;;7.97;7.25;;;;;26.30;99114.00;;;;5076315;28;20044;-65
2023/08/20 07:37:58;;;;;;;9.38;8.48;;;;;26.40;99109.00;;;;5094460;28;20048;-65
2023/08/20 07:40:25;;;;;;;8.60;7.05;;;;;26.50;99113.00;;;;5094198;28;20610;-65
2023/08/20 07:42:56;;;;;;;9.52;7.38;;;;;26.50;99111.00;;;;5094571;28;20044;-64
2023/08/20 07:45:22;;;;;;;18.05;12.30;;;;;26.50;99114.00;;;;5094488;28;20040;-64
2023/08/20 07:47:49;;;;;;;25.67;14.65;;;;;26.40;99114.00;;;;5094425;28;20126;-65
2023/08/20 07:50:16;;;;;;;15.93;9.80;;;;;26.40;99108.00;;;;5076193;28;20048;-64
2023/08/20 07:52:43;;;;;;;14.75;9.57;;;;;26.50;99119.00;;;;5076406;28;20459;-65
2023/08/20 07:55:09;;;;;;;10.48;7.63;;;;;26.60;99123.00;;;;5075985;28;20047;-64
2023/08/20 07:57:36;;;;;;;10.52;8.07;;;;;26.80;99113.00;;;;5094207;28;20067;-64
2023/08/20 08:00:04;;;;;;;16.85;11.70;;;;;26.90;99113.00;;;;5076163;28;20040;-63
2023/08/20 08:02:36;;;;;;;11.60;8.45;;;;;26.90;99109.00;;;;5094262;28;20048;-65
2023/08/20 08:05:03;;;;;;;13.98;9.82;;;;;27.00;99116.00;;;;5076119;28;20036;-64
2023/08/20 08:07:30;;;;;;;12.98;8.23;;;;;27.10;99114.00;;;;5077639;28;20143;-65
2023/08/20 08:09:56;;;;;;;15.40;11.80;;;;;27.20;99116.00;;;;5078463;28;20055;-65
2023/08/20 08:12:23;;;;;;;9.75;8.02;;;;;27.10;99117.00;;;;5096217;28;20051;-64
2023/08/20 08:14:49;;;;;;;10.15;7.90;;;;;27.10;99113.00;;;;5075576;28;20134;-64
2023/08/20 08:17:16;;;;;;;14.95;10.40;;;;;27.20;99114.00;;;;5094000;28;20282;-64
2023/08/20 08:19:43;;;;;;;9.55;8.52;;;;;27.20;99114.00;;;;5092923;28;20035;-64
2023/08/20 08:22:09;;;;;;;11.90;7.78;;;;;27.30;99117.00;;;;5093424;28;20068;-64
2023/08/20 08:24:36;;;;;;;7.80;6.63;;;;;27.40;99118.00;;;;5075401;28;20047;-64
2023/08/20 08:27:02;;;;;;;9.98;8.10;;;;;27.50;99123.00;;;;5075649;28;20050;-64
2023/08/20 08:29:29;;;;;;;8.23;7.07;;;;;27.50;99124.00;;;;5093165;28;20484;-64
2023/08/20 08:31:55;;;;;;;10.25;7.07;;;;;27.50;99124.00;;;;5075348;28;20068;-64
2023/08/20 08:34:22;;;;;;;9.85;6.30;;;;;27.60;99120.00;;;;5093143;28;20404;-64
2023/08/20 08:36:48;;;;;;;9.73;7.55;;;;;27.80;99122.00;;;;5074762;28;20134;-64
2023/08/20 08:39:15;;;;;;;11.73;7.55;;;;;27.80;99119.00;;;;5093100;28;20046;-64
2023/08/20 08:41:42;;;;;;;8.48;7.15;;;;;27.90;99122.00;;;;5093558;28;20040;-64
2023/08/20 08:44:10;;;;;;;8.05;7.22;;;;;28.10;99138.00;;;;5058909;28;20047;-64
2023/08/20 08:46:38;;;;;;;8.30;6.97;;;;;28.20;99140.00;;;;5075052;28;20450;-66
2023/08/20 08:49:05;;;;;;;10.20;7.57;;;;;28.20;99137.00;;;;5058449;28;20048;-66
2023/08/20 08:51:33;;;;;;;8.27;6.88;;;;;28.30;99131.00;;;;5092985;28;20047;-66
2023/08/20 08:54:01;;;;;;;9.10;7.03;;;;;28.20;99124.00;;;;5075001;28;20119;-66
2023/08/20 08:56:28;;;;;;;8.55;6.68;;;;;28.30;99134.00;;;;5058436;28;20050;-66
2023/08/20 08:59:01;;;;;;;9.35;6.97;;;;;28.40;99127.00;;;;5125808;27;20396;-66
2023/08/20 09:01:28;;;;;;;7.40;6.60;;;;;28.50;99128.00;;;;5109802;28;20046;-66
2023/08/20 09:03:57;;;;;;;7.63;6.82;;;;;28.60;99131.00;;;;5109998;28;20395;-64
2023/08/20 09:06:24;;;;;;;18.50;7.35;;;;;28.70;99119.00;;;;5108528;28;20746;-65
2023/08/20 09:09:03;;;;;;;8.00;7.20;;;;;28.80;99118.00;;;;5109814;28;20047;-65
2023/08/20 09:11:35;;;;;;;6.85;6.15;;;;;28.90;99122.00;;;;5108304;28;20517;-66
2023/08/20 09:14:02;;;;;;;6.43;5.60;;;;;29.00;99117.00;;;;5108538;28;20074;-66
2023/08/20 09:16:31;;;;;;;6.80;6.03;;;;;29.00;99120.00;;;;5109802;28;20050;-66
2023/08/20 09:19:02;;;;;;;10.48;7.35;;;;;29.00;99120.00;;;;5109552;28;20067;-65
2023/08/20 09:21:29;;;;;;;6.55;5.50;;;;;29.00;99125.00;;;;5108251;28;20051;-65
2023/08/20 09:24:00;;;;;;;6.57;5.72;;;;;29.20;99128.00;;;;5109802;28;20048;-64
2023/08/20 09:26:26;;;;;;;7.75;6.97;;;;;29.30;99130.00;;;;5091609;28;20054;-64
2023/08/20 09:28:56;;;;;;;7.53;6.22;;;;;29.30;99137.00;;;;5109510;28;20078;-64
2023/08/20 09:31:37;;;;;;;6.68;6.00;;;;;29.40;99134.00;;;;5108480;28;20044;-64
2023/08/20 09:34:04;;;;;;;8.23;6.32;;;;;29.30;99135.00;;;;5108216;28;20043;-64
2023/08/20 09:36:35;;;;;;;8.90;5.82;;;;;29.40;99129.00;;;;5109385;28;20051;-64
2023/08/20 09:39:02;;;;;;;6.85;6.13;;;;;29.50;99136.00;;;;5109120;28;20075;-64
2023/08/20 09:41:29;;;;;;;5.93;5.28;;;;;29.60;99127.00;;;;5108033;28;20040;-64
2023/08/20 09:43:57;;;;;;;5.97;5.38;;;;;29.80;99130.00;;;;5108873;28;20114;-63
2023/08/20 09:46:27;;;;;;;9.07;5.90;;;;;29.90;99126.00;;;;5108048;28;20071;-63
2023/08/20 09:48:57;;;;;;;7.93;5.10;;;;;29.80;99122.00;;;;5109333;28;20044;-67
2023/08/20 09:51:26;;;;;;;6.57;5.65;;;;;29.90;99124.00;;;;5109096;28;20054;-63
2023/08/20 09:54:06;;;;;;;5.63;5.07;;;;;30.00;99125.00;;;;5107934;28;20040;-65
2023/08/20 09:56:38;;;;;;;6.30;5.00;;;;;30.20;99119.00;;;;5108893;28;20046;-65
2023/08/20 09:59:06;;;;;;;6.13;4.90;;;;;30.20;99119.00;;;;5108903;28;20047;-66
2023/08/20 10:01:33;;;;;;;5.72;4.68;;;;;30.40;99119.00;;;;5107442;28;20089;-66
2023/08/20 10:03:59;;;;;;;6.93;4.40;;;;;30.40;99116.00;;;;5108529;28;20040;-66
2023/08/20 10:06:27;;;;;;;9.50;4.55;;;;;30.40;99108.00;;;;5108684;28;20047;-66
2023/08/20 10:08:54;;;;;;;6.70;4.65;;;;;30.40;99108.00;;;;5085458;28;20504;-65
2023/08/20 10:11:20;;;;;;;7.30;4.35;;;;;30.40;99111.00;;;;5094793;28;20044;-65
2023/08/20 10:13:47;;;;;;;7.00;4.40;;;;;30.50;99109.00;;;;5093908;28;20063;-65
2023/08/20 10:16:20;;;;;;;6.57;4.10;;;;;30.60;99100.00;;;;5095319;28;20404;-64
2023/08/20 10:18:47;;;;;;;4.60;4.20;;;;;30.80;99105.00;;;;5095178;28;20477;-65
2023/08/20 10:21:14;;;;;;;5.28;3.40;;;;;30.80;99103.00;;;;5094857;28;20055;-64
2023/08/20 10:23:43;;;;;;;4.93;3.70;;;;;30.90;99105.00;;;;5095219;28;20043;-64
2023/08/20 10:26:10;;;;;;;4.85;3.95;;;;;31.00;99110.00;;;;5095207;28;20063;-65
2023/08/20 10:28:37;;;;;;;4.70;3.20;;;;;31.20;99116.00;;;;5095146;28;20038;-65
2023/08/20 10:31:11;;;;;;;4.35;3.92;;;;;31.20;99121.00;;;;5095047;28;20402;-65
2023/08/20 10:33:48;;;;;;;7.57;3.65;;;;;31.30;99122.00;;;;5094863;28;20040;-66
2023/08/20 10:36:27;;;;;;;7.22;6.50;;;;;31.30;99119.00;;;;5093548;28;20055;-64
2023/08/20 10:38:56;;;;;;;3.80;2.85;;;;;31.40;99123.00;;;;5094625;28;20058;-64
2023/08/20 10:41:26;;;;;;;5.95;2.70;;;;;31.50;99128.00;;;;5094439;28;20040;-64
2023/08/20 10:43:53;;;;;;;4.75;3.50;;;;;31.50;99118.00;;;;5093230;28;20051;-65
2023/08/20 10:46:21;;;;;;;3.92;3.58;;;;;31.60;99121.00;;;;5094892;28;20416;-64
2023/08/20 10:48:49;;;;;;;8.57;5.22;;;;;31.60;99125.00;;;;5093070;28;20055;-63
2023/08/20 10:51:24;;;;;;;4.22;3.53;;;;;31.60;99118.00;;;;5094501;28;20075;-64
2023/08/20 10:54:12;;;;;;;5.70;3.88;;;;;31.70;99111.00;;;;5094761;28;20065;-64
2023/08/20 10:56:47;;;;;;;7.10;4.60;;;;;31.90;99108.00;;;;5094580;28;20063;-66
2023/08/20 10:59:27;;;;;;;6.63;3.92;;;;;32.00;99112.00;;;;5093362;28;20043;-66
2023/08/20 11:01:55;;;;;;;5.05;3.83;;;;;32.10;99117.00;;;;5094493;28;20043;-65
2023/08/20 11:04:26;;;;;;;5.30;3.67;;;;;32.10;99111.00;;;;5094462;28;20066;-66
2023/08/20 11:06:54;;;;;;;5.60;3.00;;;;;32.20;99115.00;;;;5093281;28;20097;-65
2023/08/20 11:09:22;;;;;;;5.13;3.88;;;;;32.20;99118.00;;;;5094435;28;20063;-66
2023/08/20 11:11:50;;;;;;;4.93;3.80;;;;;32.20;99120.00;;;;5094482;28;20047;-66
2023/08/20 11:14:18;;;;;;;5.15;3.75;;;;;32.20;99115.00;;;;5094289;28;20048;-65
2023/08/20 11:16:45;;;;;;;6.40;4.50;;;;;32.20;99114.00;;;;5093004;28;20520;-66
2023/08/20 11:19:13;;;;;;;4.97;3.60;;;;;32.30;99115.00;;;;5091989;28;20049;-65
2023/08/20 11:21:41;;;;;;;6.10;3.58;;;;;32.40;99119.00;;;;5092974;28;20079;-66
2023/08/20 11:24:08;;;;;;;7.90;3.85;;;;;32.40;99115.00;;;;5092659;28;20040;-65
2023/08/20 11:26:36;;;;;;;6.18;3.85;;;;;32.50;99116.00;;;;5093917;28;20145;-66
2023/08/20 11:29:12;;;;;;;4.85;3.25;;;;;32.60;99118.00;;;;5094059;28;20036;-65
2023/08/20 11:31:39;;;;;;;4.70;3.35;;;;;32.60;99111.00;;;;5094068;28;20044;-65
2023/08/20 11:34:07;;;;;;;4.03;3.38;;;;;32.70;99109.00;;;;5075893;28;20075;-65
2023/08/20 11:36:35;;;;;;;5.15;3.65;;;;;32.60;99110.00;;;;5093822;28;20044;-66
2023/08/20 11:39:02;;;;;;;5.70;3.42;;;;;32.60;99115.00;;;;5092419;28;20040;-65
2023/08/20 11:41:28;;;;;;;6.05;3.78;;;;;32.60;99109.00;;;;5093546;28;20048;-64
2023/08/20 11:43:55;;;;;;;6.72;3.40;;;;;32.70;99106.00;;;;5092101;28;20044;-66
2023/08/20 11:46:23;;;;;;;4.50;3.15;;;;;32.70;99102.00;;;;5093681;28;20516;-65
2023/08/20 11:49:04;;;;;;;5.18;3.80;;;;;32.70;99107.00;;;;5093239;28;20400;-65
2023/08/20 11:51:55;;;;;;;4.63;3.50;;;;;32.70;99105.00;;;;5092428;28;20044;-66
2023/08/20 11:54:22;;;;;;;7.18;3.53;;;;;32.70;99105.00;;;;5093561;28;20044;-66
2023/08/20 11:56:50;;;;;;;6.20;3.30;;;;;32.80;99112.00;;;;5092142;28;20046;-66
2023/08/20 11:59:19;;;;;;;3.95;3.10;;;;;32.80;99107.00;;;;5091751;28;20040;-66
2023/08/20 12:02:00;;;;;;;3.88;2.97;;;;;32.90;99102.00;;;;5092198;28;20062;-65
2023/08/20 12:04:29;;;;;;;5.63;4.38;;;;;33.00;99105.00;;;;5093196;28;20044;-64
2023/08/20 12:07:09;;;;;;;7.28;3.22;;;;;33.00;99097.00;;;;5093024;28;20484;-67
2023/08/20 12:09:35;;;;;;;5.40;3.53;;;;;32.80;99098.00;;;;5091739;28;20048;-65
2023/08/20 12:12:05;;;;;;;14.82;13.35;;;;;33.00;99090.00;;;;5092082;28;20048;-66
2023/08/20 12:14:32;;;;;;;5.50;4.30;;;;;33.20;99079.00;;;;5075218;28;20048;-66
2023/08/20 12:16:58;;;;;;;6.63;3.70;;;;;33.40;99087.00;;;;5092959;28;20040;-65